sensor_id;sensor_type;location;lat;lon;timestamp;pressure;altitude;pressure_sealevel;temperature;humidity
40708;BME280;26392;42.696;23.350;2023-02-04T00:02:21;95129.97;;;1.47;100.00
40708;BME280;26392;42.696;23.350;2023-02-04T00:04:46;95131.63;;;1.48;100.00
40708;BME280;26392;42.696;23.350;2023-02-04T00:07:11;95128.53;;;1.38;100.00
40708;BME280;26392;42.696;23.350;2023-02-04T00:09:37;95129.75;;;1.42;100.00
40708;BME280;26392;42.696;23.350;2023-02-04T00:12:03;95124.78;;;1.39;100.00
40708;BME280;26392;42.696;23.350;2023-02-04T00:14:28;95109.72;;;1.51;100.00
40708;BME280;26392;42.696;23.350;2023-02-04T00:16:54;95104.63;;;1.63;100.00
40708;BME280;26392;42.696;23.350;2023-02-04T00:19:19;95106.06;;;1.72;100.00
40708;BME280;26392;42.696;23.350;2023-02-04T00:21:45;95100.66;;;1.59;100.00
40708;BME280;26392;42.696;23.350;2023-02-04T00:24:10;95112.03;;;1.61;100.00
40708;BME280;26392;42.696;23.350;2023-02-04T00:26:36;95091.56;;;1.46;100.00
40708;BME280;26392;42.696;23.350;2023-02-04T00:29:01;95103.53;;;1.50;100.00
40708;BME280;26392;42.696;23.350;2023-02-04T00:31:26;95100.22;;;1.48;100.00
40708;BME280;26392;42.696;23.350;2023-02-04T00:33:52;95090.09;;;1.37;100.00
40708;BME280;26392;42.696;23.350;2023-02-04T00:36:17;95092.72;;;1.17;100.00
40708;BME280;26392;42.696;23.350;2023-02-04T00:38:43;95103.44;;;1.04;100.00
40708;BME280;26392;42.696;23.350;2023-02-04T00:41:08;95106.53;;;1.07;100.00
40708;BME280;26392;42.696;23.350;2023-02-04T00:43:33;95101.59;;;1.11;100.00
40708;BME280;26392;42.696;23.350;2023-02-04T00:45:59;95085.66;;;1.03;100.00
40708;BME280;26392;42.696;23.350;2023-02-04T00:48:24;95084.84;;;1.02;100.00
40708;BME280;26392;42.696;23.350;2023-02-04T00:50:50;95081.97;;;1.10;100.00
40708;BME280;26392;42.696;23.350;2023-02-04T00:53:17;95075.38;;;1.13;100.00
40708;BME280;26392;42.696;23.350;2023-02-04T00:55:42;95076.38;;;1.05;100.00
40708;BME280;26392;42.696;23.350;2023-02-04T00:58:07;95077.84;;;1.15;100.00
40708;BME280;26392;42.696;23.350;2023-02-04T01:00:33;95074.53;;;1.06;100.00
40708;BME280;26392;42.696;23.350;2023-02-04T01:02:58;95061.16;;;1.13;100.00
40708;BME280;26392;42.696;23.350;2023-02-04T01:05:24;95069.22;;;1.19;100.00
40708;BME280;26392;42.696;23.350;2023-02-04T01:07:49;95047.53;;;1.27;100.00
40708;BME280;26392;42.696;23.350;2023-02-04T01:10:15;95052.53;;;1.44;100.00
40708;BME280;26392;42.696;23.350;2023-02-04T01:12:42;95041.31;;;1.14;100.00
40708;BME280;26392;42.696;23.350;2023-02-04T01:15:08;95037.22;;;1.24;100.00
40708;BME280;26392;42.696;23.350;2023-02-04T01:17:33;95041.75;;;1.30;100.00
40708;BME280;26392;42.696;23.350;2023-02-04T01:19:58;95027.97;;;1.40;100.00
40708;BME280;26392;42.696;23.350;2023-02-04T01:22:24;95028.56;;;1.29;100.00
40708;BME280;26392;42.696;23.350;2023-02-04T01:24:49;95026.28;;;1.39;100.00
40708;BME280;26392;42.696;23.350;2023-02-04T01:27:15;95028.34;;;1.37;100.00
40708;BME280;26392;42.696;23.350;2023-02-04T01:29:40;95028.34;;;1.50;100.00
40708;BME280;26392;42.696;23.350;2023-02-04T01:32:05;95024.00;;;1.43;100.00
40708;BME280;26392;42.696;23.350;2023-02-04T01:34:31;95005.63;;;1.60;100.00
40708;BME280;26392;42.696;23.350;2023-02-04T01:36:56;95014.75;;;1.72;100.00
40708;BME280;26392;42.696;23.350;2023-02-04T01:39:22;95002.75;;;1.68;100.00
40708;BME280;26392;42.696;23.350;2023-02-04T01:41:47;95001.53;;;1.77;100.00
40708;BME280;26392;42.696;23.350;2023-02-04T01:44:13;95000.47;;;1.91;100.00
40708;BME280;26392;42.696;23.350;2023-02-04T01:46:38;94993.66;;;1.82;100.00
40708;BME280;26392;42.696;23.350;2023-02-04T01:49:05;94990.72;;;1.90;100.00
40708;BME280;26392;42.696;23.350;2023-02-04T01:51:31;94983.09;;;1.94;100.00
40708;BME280;26392;42.696;23.350;2023-02-04T01:53:58;94983.72;;;1.89;100.00
40708;BME280;26392;42.696;23.350;2023-02-04T01:56:25;94982.47;;;1.92;100.00
40708;BME280;26392;42.696;23.350;2023-02-04T01:58:51;94973.16;;;2.08;100.00
40708;BME280;26392;42.696;23.350;2023-02-04T02:04:03;94975.78;;;2.28;100.00
40708;BME280;26392;42.696;23.350;2023-02-04T02:06:30;94972.88;;;2.29;100.00
40708;BME280;26392;42.696;23.350;2023-02-04T02:08:55;94989.00;;;2.36;100.00
40708;BME280;26392;42.696;23.350;2023-02-04T02:11:23;94988.16;;;2.29;100.00
40708;BME280;26392;42.696;23.350;2023-02-04T02:13:48;94982.16;;;2.33;100.00
40708;BME280;26392;42.696;23.350;2023-02-04T02:16:14;94967.69;;;2.41;100.00
40708;BME280;26392;42.696;23.350;2023-02-04T02:18:39;94968.31;;;2.36;100.00
40708;BME280;26392;42.696;23.350;2023-02-04T02:21:08;94961.28;;;2.35;100.00
40708;BME280;26392;42.696;23.350;2023-02-04T02:23:46;94954.25;;;2.34;100.00
40708;BME280;26392;42.696;23.350;2023-02-04T02:26:13;94943.06;;;2.37;100.00
40708;BME280;26392;42.696;23.350;2023-02-04T02:28:39;94938.72;;;2.36;100.00
40708;BME280;26392;42.696;23.350;2023-02-04T02:31:05;94929.41;;;2.39;100.00
40708;BME280;26392;42.696;23.350;2023-02-04T02:33:30;94921.53;;;2.37;100.00
40708;BME280;26392;42.696;23.350;2023-02-04T02:35:56;94904.22;;;2.33;100.00
40708;BME280;26392;42.696;23.350;2023-02-04T02:38:21;94891.00;;;2.25;100.00
40708;BME280;26392;42.696;23.350;2023-02-04T02:40:48;94891.44;;;2.22;100.00
40708;BME280;26392;42.696;23.350;2023-02-04T02:43:16;94888.59;;;2.10;100.00
40708;BME280;26392;42.696;23.350;2023-02-04T02:45:42;94875.56;;;2.14;100.00
40708;BME280;26392;42.696;23.350;2023-02-04T02:48:09;94887.75;;;2.10;100.00
40708;BME280;26392;42.696;23.350;2023-02-04T02:50:35;94892.78;;;1.99;100.00
40708;BME280;26392;42.696;23.350;2023-02-04T02:53:01;94886.63;;;1.72;100.00
40708;BME280;26392;42.696;23.350;2023-02-04T02:55:28;94879.25;;;1.54;100.00
40708;BME280;26392;42.696;23.350;2023-02-04T02:57:55;94873.88;;;1.54;100.00
40708;BME280;26392;42.696;23.350;2023-02-04T03:00:26;94880.06;;;1.48;100.00
40708;BME280;26392;42.696;23.350;2023-02-04T03:02:57;94882.97;;;1.60;100.00
40708;BME280;26392;42.696;23.350;2023-02-04T03:05:24;94886.84;;;1.77;100.00
40708;BME280;26392;42.696;23.350;2023-02-04T03:07:51;94889.25;;;1.92;100.00
40708;BME280;26392;42.696;23.350;2023-02-04T03:10:17;94870.47;;;1.92;100.00
40708;BME280;26392;42.696;23.350;2023-02-04T03:12:44;94886.53;;;2.06;100.00
40708;BME280;26392;42.696;23.350;2023-02-04T03:15:10;94890.44;;;2.16;100.00
40708;BME280;26392;42.696;23.350;2023-02-04T03:17:36;94891.44;;;2.22;100.00
40708;BME280;26392;42.696;23.350;2023-02-04T03:20:02;94882.94;;;2.25;100.00
40708;BME280;26392;42.696;23.350;2023-02-04T03:22:28;94877.13;;;2.28;100.00
40708;BME280;26392;42.696;23.350;2023-02-04T03:24:54;94868.84;;;2.30;100.00
40708;BME280;26392;42.696;23.350;2023-02-04T03:27:22;94864.75;;;2.27;100.00
40708;BME280;26392;42.696;23.350;2023-02-04T03:29:48;94863.69;;;2.28;100.00
40708;BME280;26392;42.696;23.350;2023-02-04T03:32:14;94862.25;;;2.26;100.00
40708;BME280;26392;42.696;23.350;2023-02-04T03:34:39;94859.13;;;2.35;100.00
40708;BME280;26392;42.696;23.350;2023-02-04T03:37:04;94872.28;;;2.43;100.00
40708;BME280;26392;42.696;23.350;2023-02-04T03:39:30;94862.75;;;2.47;100.00
40708;BME280;26392;42.696;23.350;2023-02-04T03:41:55;94861.34;;;2.45;100.00
40708;BME280;26392;42.696;23.350;2023-02-04T03:44:21;94858.00;;;2.50;100.00
40708;BME280;26392;42.696;23.350;2023-02-04T03:46:51;94852.63;;;2.50;100.00
40708;BME280;26392;42.696;23.350;2023-02-04T03:49:22;94847.81;;;2.58;100.00
40708;BME280;26392;42.696;23.350;2023-02-04T03:51:47;94849.50;;;2.53;100.00
40708;BME280;26392;42.696;23.350;2023-02-04T03:54:13;94845.72;;;2.60;100.00
40708;BME280;26392;42.696;23.350;2023-02-04T03:56:38;94840.13;;;2.62;100.00
40708;BME280;26392;42.696;23.350;2023-02-04T03:59:04;94835.13;;;2.65;100.00
40708;BME280;26392;42.696;23.350;2023-02-04T04:01:29;94828.94;;;2.65;100.00
40708;BME280;26392;42.696;23.350;2023-02-04T04:03:55;94821.38;;;2.49;100.00
40708;BME280;26392;42.696;23.350;2023-02-04T04:06:20;94823.88;;;2.50;100.00
40708;BME280;26392;42.696;23.350;2023-02-04T04:08:45;94819.31;;;2.51;100.00
40708;BME280;26392;42.696;23.350;2023-02-04T04:11:11;94806.81;;;2.31;100.00
40708;BME280;26392;42.696;23.350;2023-02-04T04:13:36;94805.88;;;2.12;100.00
40708;BME280;26392;42.696;23.350;2023-02-04T04:16:02;94804.28;;;2.05;100.00
40708;BME280;26392;42.696;23.350;2023-02-04T04:18:29;94801.03;;;1.89;100.00
40708;BME280;26392;42.696;23.350;2023-02-04T04:20:55;94803.00;;;2.07;100.00
40708;BME280;26392;42.696;23.350;2023-02-04T04:23:20;94802.44;;;1.98;100.00
40708;BME280;26392;42.696;23.350;2023-02-04T04:25:46;94802.50;;;1.85;100.00
40708;BME280;26392;42.696;23.350;2023-02-04T04:28:11;94802.75;;;1.77;100.00
40708;BME280;26392;42.696;23.350;2023-02-04T04:30:37;94807.69;;;1.80;100.00
40708;BME280;26392;42.696;23.350;2023-02-04T04:33:02;94796.56;;;1.76;100.00
40708;BME280;26392;42.696;23.350;2023-02-04T04:35:28;94813.28;;;1.78;100.00
40708;BME280;26392;42.696;23.350;2023-02-04T04:37:53;94814.28;;;1.84;100.00
40708;BME280;26392;42.696;23.350;2023-02-04T04:40:18;94813.41;;;1.97;100.00
40708;BME280;26392;42.696;23.350;2023-02-04T04:42:44;94823.28;;;2.03;100.00
40708;BME280;26392;42.696;23.350;2023-02-04T04:45:10;94817.16;;;1.89;100.00
40708;BME280;26392;42.696;23.350;2023-02-04T04:47:35;94821.91;;;1.87;100.00
40708;BME280;26392;42.696;23.350;2023-02-04T04:50:01;94833.00;;;2.04;100.00
40708;BME280;26392;42.696;23.350;2023-02-04T04:52:26;94834.66;;;1.98;100.00
40708;BME280;26392;42.696;23.350;2023-02-04T04:54:52;94831.97;;;1.98;100.00
40708;BME280;26392;42.696;23.350;2023-02-04T04:57:17;94831.56;;;2.01;100.00
40708;BME280;26392;42.696;23.350;2023-02-04T04:59:42;94833.91;;;1.91;100.00
40708;BME280;26392;42.696;23.350;2023-02-04T05:02:08;94823.19;;;1.78;100.00
40708;BME280;26392;42.696;23.350;2023-02-04T05:04:33;94828.34;;;1.86;100.00
40708;BME280;26392;42.696;23.350;2023-02-04T05:06:59;94820.03;;;1.94;100.00
40708;BME280;26392;42.696;23.350;2023-02-04T05:09:24;94829.50;;;2.04;100.00
40708;BME280;26392;42.696;23.350;2023-02-04T05:11:50;94827.38;;;2.12;100.00
40708;BME280;26392;42.696;23.350;2023-02-04T05:14:15;94835.41;;;2.19;100.00
40708;BME280;26392;42.696;23.350;2023-02-04T05:16:41;94836.31;;;2.44;100.00
40708;BME280;26392;42.696;23.350;2023-02-04T05:19:06;94838.63;;;2.66;100.00
40708;BME280;26392;42.696;23.350;2023-02-04T05:21:31;94849.84;;;2.88;100.00
40708;BME280;26392;42.696;23.350;2023-02-04T05:23:57;94844.31;;;3.08;100.00
40708;BME280;26392;42.696;23.350;2023-02-04T05:26:22;94862.63;;;3.24;100.00
40708;BME280;26392;42.696;23.350;2023-02-04T05:28:48;94864.66;;;3.29;100.00
40708;BME280;26392;42.696;23.350;2023-02-04T05:31:13;94865.81;;;3.40;100.00
40708;BME280;26392;42.696;23.350;2023-02-04T05:33:38;94876.13;;;3.43;100.00
40708;BME280;26392;42.696;23.350;2023-02-04T05:36:04;94873.00;;;3.46;100.00
40708;BME280;26392;42.696;23.350;2023-02-04T05:38:29;94878.13;;;3.47;100.00
40708;BME280;26392;42.696;23.350;2023-02-04T05:40:55;94871.13;;;3.46;100.00
40708;BME280;26392;42.696;23.350;2023-02-04T05:43:20;94870.31;;;3.46;100.00
40708;BME280;26392;42.696;23.350;2023-02-04T05:45:45;94870.66;;;3.49;100.00
40708;BME280;26392;42.696;23.350;2023-02-04T05:48:11;94867.00;;;3.44;100.00
40708;BME280;26392;42.696;23.350;2023-02-04T05:50:36;94870.78;;;3.36;100.00
40708;BME280;26392;42.696;23.350;2023-02-04T05:53:02;94862.28;;;3.39;100.00
40708;BME280;26392;42.696;23.350;2023-02-04T05:55:27;94862.66;;;3.43;100.00
40708;BME280;26392;42.696;23.350;2023-02-04T05:57:53;94855.25;;;3.38;100.00
40708;BME280;26392;42.696;23.350;2023-02-04T06:00:18;94853.59;;;3.37;100.00
40708;BME280;26392;42.696;23.350;2023-02-04T06:02:44;94872.50;;;3.30;100.00
40708;BME280;26392;42.696;23.350;2023-02-04T06:05:09;94856.94;;;3.32;100.00
40708;BME280;26392;42.696;23.350;2023-02-04T06:07:34;94857.78;;;3.33;100.00
40708;BME280;26392;42.696;23.350;2023-02-04T06:10:00;94851.53;;;3.39;100.00
40708;BME280;26392;42.696;23.350;2023-02-04T06:12:25;94865.28;;;3.49;100.00
40708;BME280;26392;42.696;23.350;2023-02-04T06:14:51;94876.59;;;3.58;100.00
40708;BME280;26392;42.696;23.350;2023-02-04T06:17:16;94878.63;;;3.63;100.00
40708;BME280;26392;42.696;23.350;2023-02-04T06:19:41;94872.97;;;3.71;100.00
40708;BME280;26392;42.696;23.350;2023-02-04T06:22:07;94875.13;;;3.80;100.00
40708;BME280;26392;42.696;23.350;2023-02-04T06:24:32;94886.22;;;3.91;100.00
40708;BME280;26392;42.696;23.350;2023-02-04T06:26:57;94871.09;;;3.90;100.00
40708;BME280;26392;42.696;23.350;2023-02-04T06:29:23;94862.13;;;3.96;100.00
40708;BME280;26392;42.696;23.350;2023-02-04T06:31:48;94871.09;;;3.90;100.00
40708;BME280;26392;42.696;23.350;2023-02-04T06:34:14;94862.03;;;3.84;100.00
40708;BME280;26392;42.696;23.350;2023-02-04T06:36:39;94858.94;;;3.80;100.00
40708;BME280;26392;42.696;23.350;2023-02-04T06:39:05;94870.13;;;3.84;100.00
40708;BME280;26392;42.696;23.350;2023-02-04T06:41:30;94870.78;;;3.79;100.00
40708;BME280;26392;42.696;23.350;2023-02-04T06:43:56;94874.25;;;3.87;100.00
40708;BME280;26392;42.696;23.350;2023-02-04T06:46:21;94862.41;;;3.88;100.00
40708;BME280;26392;42.696;23.350;2023-02-04T06:48:46;94871.31;;;3.88;100.00
40708;BME280;26392;42.696;23.350;2023-02-04T06:51:12;94858.66;;;3.89;100.00
40708;BME280;26392;42.696;23.350;2023-02-04T06:53:37;94867.50;;;3.96;100.00
40708;BME280;26392;42.696;23.350;2023-02-04T06:56:04;94869.38;;;3.95;100.00
40708;BME280;26392;42.696;23.350;2023-02-04T06:58:30;94858.50;;;4.02;100.00
40708;BME280;26392;42.696;23.350;2023-02-04T07:00:55;94838.88;;;3.95;100.00
40708;BME280;26392;42.696;23.350;2023-02-04T07:03:20;94840.63;;;4.08;100.00
40708;BME280;26392;42.696;23.350;2023-02-04T07:05:46;94849.91;;;4.12;100.00
40708;BME280;26392;42.696;23.350;2023-02-04T07:08:11;94844.28;;;4.13;100.00
40708;BME280;26392;42.696;23.350;2023-02-04T07:10:37;94849.50;;;4.26;100.00
40708;BME280;26392;42.696;23.350;2023-02-04T07:13:02;94854.34;;;4.36;100.00
40708;BME280;26392;42.696;23.350;2023-02-04T07:15:27;94850.38;;;4.39;100.00
40708;BME280;26392;42.696;23.350;2023-02-04T07:17:53;94855.78;;;4.39;100.00
40708;BME280;26392;42.696;23.350;2023-02-04T07:20:18;94845.47;;;4.47;100.00
40708;BME280;26392;42.696;23.350;2023-02-04T07:22:44;94849.88;;;4.60;100.00
40708;BME280;26392;42.696;23.350;2023-02-04T07:25:09;94847.78;;;4.62;100.00
40708;BME280;26392;42.696;23.350;2023-02-04T07:27:35;94845.66;;;4.64;100.00
40708;BME280;26392;42.696;23.350;2023-02-04T07:30:01;94848.16;;;4.66;100.00
40708;BME280;26392;42.696;23.350;2023-02-04T07:32:26;94832.31;;;4.69;100.00
40708;BME280;26392;42.696;23.350;2023-02-04T07:34:57;94819.31;;;4.78;100.00
40708;BME280;26392;42.696;23.350;2023-02-04T07:37:22;94837.19;;;4.91;100.00
40708;BME280;26392;42.696;23.350;2023-02-04T07:39:47;94839.88;;;4.91;100.00
40708;BME280;26392;42.696;23.350;2023-02-04T07:42:13;94847.06;;;5.09;100.00
40708;BME280;26392;42.696;23.350;2023-02-04T07:44:38;94853.94;;;5.35;98.43
40708;BME280;26392;42.696;23.350;2023-02-04T07:47:05;94845.09;;;5.39;96.67
40708;BME280;26392;42.696;23.350;2023-02-04T07:49:30;94838.88;;;5.51;95.02
40708;BME280;26392;42.696;23.350;2023-02-04T07:51:55;94842.41;;;5.75;93.01
40708;BME280;26392;42.696;23.350;2023-02-04T07:54:22;94833.84;;;5.78;91.19
40708;BME280;26392;42.696;23.350;2023-02-04T07:56:47;94827.34;;;5.91;90.15
40708;BME280;26392;42.696;23.350;2023-02-04T07:59:13;94828.19;;;6.03;88.80
40708;BME280;26392;42.696;23.350;2023-02-04T08:01:38;94830.47;;;6.23;86.10
40708;BME280;26392;42.696;23.350;2023-02-04T08:04:03;94831.06;;;6.25;83.01
40708;BME280;26392;42.696;23.350;2023-02-04T08:06:29;94838.22;;;6.31;81.65
40708;BME280;26392;42.696;23.350;2023-02-04T08:08:54;94834.69;;;6.31;80.79
40708;BME280;26392;42.696;23.350;2023-02-04T08:11:20;94833.72;;;6.37;79.13
40708;BME280;26392;42.696;23.350;2023-02-04T08:13:45;94836.78;;;6.40;79.14
40708;BME280;26392;42.696;23.350;2023-02-04T08:16:11;94842.41;;;6.50;77.55
40708;BME280;26392;42.696;23.350;2023-02-04T08:18:36;94831.34;;;6.40;77.59
40708;BME280;26392;42.696;23.350;2023-02-04T08:21:01;94835.19;;;6.27;78.30
40708;BME280;26392;42.696;23.350;2023-02-04T08:23:29;94840.25;;;6.12;79.55
40708;BME280;26392;42.696;23.350;2023-02-04T08:25:55;94845.69;;;5.89;81.10
40708;BME280;26392;42.696;23.350;2023-02-04T08:28:20;94839.09;;;5.84;82.68
40708;BME280;26392;42.696;23.350;2023-02-04T08:30:45;94844.53;;;5.73;84.41
40708;BME280;26392;42.696;23.350;2023-02-04T08:33:11;94836.19;;;5.63;86.44
40708;BME280;26392;42.696;23.350;2023-02-04T08:35:36;94841.69;;;5.79;85.63
40708;BME280;26392;42.696;23.350;2023-02-04T08:38:02;94834.69;;;5.55;87.00
40708;BME280;26392;42.696;23.350;2023-02-04T08:40:27;94832.19;;;5.65;88.96
40708;BME280;26392;42.696;23.350;2023-02-04T08:42:53;94815.41;;;5.63;88.75
40708;BME280;26392;42.696;23.350;2023-02-04T08:45:18;94835.25;;;5.69;88.43
40708;BME280;26392;42.696;23.350;2023-02-04T08:47:43;94823.97;;;5.72;88.66
40708;BME280;26392;42.696;23.350;2023-02-04T08:50:09;94826.88;;;5.82;88.45
40708;BME280;26392;42.696;23.350;2023-02-04T08:52:35;94833.94;;;5.83;86.72
40708;BME280;26392;42.696;23.350;2023-02-04T08:55:01;94835.13;;;5.64;87.12
40708;BME280;26392;42.696;23.350;2023-02-04T08:57:26;94833.25;;;5.64;88.69
40708;BME280;26392;42.696;23.350;2023-02-04T08:59:52;94825.16;;;5.64;89.58
40708;BME280;26392;42.696;23.350;2023-02-04T09:02:17;94837.47;;;5.60;91.19
40708;BME280;26392;42.696;23.350;2023-02-04T09:04:42;94833.72;;;5.73;91.40
40708;BME280;26392;42.696;23.350;2023-02-04T09:07:08;94819.63;;;5.59;91.51
40708;BME280;26392;42.696;23.350;2023-02-04T09:09:33;94833.94;;;5.59;92.68
40708;BME280;26392;42.696;23.350;2023-02-04T09:11:59;94831.94;;;5.78;93.44
40708;BME280;26392;42.696;23.350;2023-02-04T09:14:26;94837.22;;;5.85;91.32
40708;BME280;26392;42.696;23.350;2023-02-04T09:16:51;94828.28;;;5.84;90.74
40708;BME280;26392;42.696;23.350;2023-02-04T09:19:16;94817.03;;;5.99;89.10
40708;BME280;26392;42.696;23.350;2023-02-04T09:21:48;94824.47;;;6.21;86.56
40708;BME280;26392;42.696;23.350;2023-02-04T09:24:13;94818.59;;;6.24;84.39
40708;BME280;26392;42.696;23.350;2023-02-04T09:26:38;94816.38;;;6.21;83.53
40708;BME280;26392;42.696;23.350;2023-02-04T09:29:04;94814.97;;;6.18;82.44
40708;BME280;26392;42.696;23.350;2023-02-04T09:31:29;94821.09;;;6.14;81.56
40708;BME280;26392;42.696;23.350;2023-02-04T09:33:55;94798.88;;;6.12;82.14
40708;BME280;26392;42.696;23.350;2023-02-04T09:36:20;94799.53;;;6.19;81.36
40708;BME280;26392;42.696;23.350;2023-02-04T09:38:45;94817.09;;;6.04;85.07
40708;BME280;26392;42.696;23.350;2023-02-04T09:41:11;94808.81;;;5.82;89.88
40708;BME280;26392;42.696;23.350;2023-02-04T09:43:40;94811.13;;;5.79;94.68
40708;BME280;26392;42.696;23.350;2023-02-04T09:46:19;94797.97;;;5.71;98.03
40708;BME280;26392;42.696;23.350;2023-02-04T09:48:45;94805.41;;;5.64;100.00
40708;BME280;26392;42.696;23.350;2023-02-04T09:51:16;94796.25;;;5.41;100.00
40708;BME280;26392;42.696;23.350;2023-02-04T09:53:42;94802.97;;;5.38;100.00
40708;BME280;26392;42.696;23.350;2023-02-04T09:56:09;94806.81;;;5.43;100.00
40708;BME280;26392;42.696;23.350;2023-02-04T09:58:35;94800.47;;;5.49;100.00
40708;BME280;26392;42.696;23.350;2023-02-04T10:01:17;94783.09;;;5.33;100.00
40708;BME280;26392;42.696;23.350;2023-02-04T10:03:44;94792.38;;;5.37;100.00
40708;BME280;26392;42.696;23.350;2023-02-04T10:06:15;94797.53;;;5.50;100.00
40708;BME280;26392;42.696;23.350;2023-02-04T10:08:41;94786.13;;;5.48;100.00
40708;BME280;26392;42.696;23.350;2023-02-04T10:11:08;94776.28;;;5.42;100.00
40708;BME280;26392;42.696;23.350;2023-02-04T10:13:37;94780.75;;;5.48;100.00
40708;BME280;26392;42.696;23.350;2023-02-04T10:16:12;94773.84;;;5.41;100.00
40708;BME280;26392;42.696;23.350;2023-02-04T10:18:39;94772.66;;;5.36;100.00
40708;BME280;26392;42.696;23.350;2023-02-04T10:21:23;94769.25;;;5.41;100.00
40708;BME280;26392;42.696;23.350;2023-02-04T10:23:54;94766.91;;;5.33;100.00
40708;BME280;26392;42.696;23.350;2023-02-04T10:26:21;94765.72;;;5.29;100.00
40708;BME280;26392;42.696;23.350;2023-02-04T10:28:46;94761.81;;;5.48;100.00
40708;BME280;26392;42.696;23.350;2023-02-04T10:31:32;94742.69;;;5.50;100.00
40708;BME280;26392;42.696;23.350;2023-02-04T10:34:21;94762.31;;;5.45;100.00
40708;BME280;26392;42.696;23.350;2023-02-04T10:36:52;94759.47;;;5.40;100.00
40708;BME280;26392;42.696;23.350;2023-02-04T10:39:22;94756.66;;;5.47;100.00
40708;BME280;26392;42.696;23.350;2023-02-04T10:41:53;94758.56;;;5.46;100.00
40708;BME280;26392;42.696;23.350;2023-02-04T10:44:26;94746.94;;;5.22;100.00
40708;BME280;26392;42.696;23.350;2023-02-04T10:47:00;94753.63;;;5.08;100.00
40708;BME280;26392;42.696;23.350;2023-02-04T10:49:26;94750.69;;;5.09;100.00
40708;BME280;26392;42.696;23.350;2023-02-04T10:51:52;94737.66;;;5.18;100.00
40708;BME280;26392;42.696;23.350;2023-02-04T10:54:28;94751.53;;;5.22;100.00
40708;BME280;26392;42.696;23.350;2023-02-04T10:57:23;94744.72;;;5.19;100.00
40708;BME280;26392;42.696;23.350;2023-02-04T10:59:54;94739.19;;;5.26;100.00
40708;BME280;26392;42.696;23.350;2023-02-04T11:04:54;94751.03;;;5.25;100.00
40708;BME280;26392;42.696;23.350;2023-02-04T11:07:20;94740.94;;;5.44;100.00
40708;BME280;26392;42.696;23.350;2023-02-04T11:09:46;94730.81;;;5.51;100.00
40708;BME280;26392;42.696;23.350;2023-02-04T11:12:23;94733.41;;;5.57;100.00
40708;BME280;26392;42.696;23.350;2023-02-04T11:14:59;94730.06;;;5.67;100.00
40708;BME280;26392;42.696;23.350;2023-02-04T11:17:29;94730.59;;;5.93;100.00
40708;BME280;26392;42.696;23.350;2023-02-04T11:19:58;94718.75;;;5.94;100.00
40708;BME280;26392;42.696;23.350;2023-02-04T11:22:44;94724.25;;;5.99;100.00
40708;BME280;26392;42.696;23.350;2023-02-04T11:25:29;94714.13;;;6.06;100.00
40708;BME280;26392;42.696;23.350;2023-02-04T11:27:55;94717.41;;;6.08;100.00
40708;BME280;26392;42.696;23.350;2023-02-04T11:30:21;94720.84;;;5.92;100.00
40708;BME280;26392;42.696;23.350;2023-02-04T11:33:04;94730.25;;;5.89;100.00
40708;BME280;26392;42.696;23.350;2023-02-04T11:35:31;94711.75;;;5.69;100.00
40708;BME280;26392;42.696;23.350;2023-02-04T11:37:57;94725.72;;;5.78;100.00
40708;BME280;26392;42.696;23.350;2023-02-04T11:43:02;94732.69;;;5.50;100.00
40708;BME280;26392;42.696;23.350;2023-02-04T11:45:34;94727.31;;;5.38;100.00
40708;BME280;26392;42.696;23.350;2023-02-04T11:48:03;94721.69;;;5.05;100.00
40708;BME280;26392;42.696;23.350;2023-02-04T11:50:34;94734.50;;;5.21;100.00
40708;BME280;26392;42.696;23.350;2023-02-04T11:53:03;94735.06;;;5.35;100.00
40708;BME280;26392;42.696;23.350;2023-02-04T11:55:30;94722.38;;;5.47;100.00
40708;BME280;26392;42.696;23.350;2023-02-04T11:57:55;94712.59;;;5.58;100.00
40708;BME280;26392;42.696;23.350;2023-02-04T12:00:31;94728.00;;;5.57;100.00
40708;BME280;26392;42.696;23.350;2023-02-04T12:03:02;94731.72;;;5.68;100.00
40708;BME280;26392;42.696;23.350;2023-02-04T12:05:42;94721.66;;;5.52;100.00
40708;BME280;26392;42.696;23.350;2023-02-04T12:11:09;94719.81;;;5.41;100.00
40708;BME280;26392;42.696;23.350;2023-02-04T12:13:47;94720.72;;;5.58;100.00
40708;BME280;26392;42.696;23.350;2023-02-04T12:16:16;94718.22;;;5.56;100.00
40708;BME280;26392;42.696;23.350;2023-02-04T12:18:44;94713.19;;;5.48;100.00
40708;BME280;26392;42.696;23.350;2023-02-04T12:21:09;94719.53;;;5.54;100.00
40708;BME280;26392;42.696;23.350;2023-02-04T12:23:35;94710.16;;;5.45;100.00
40708;BME280;26392;42.696;23.350;2023-02-04T12:26:00;94716.41;;;5.33;100.00
40708;BME280;26392;42.696;23.350;2023-02-04T12:28:26;94716.66;;;5.08;100.00
40708;BME280;26392;42.696;23.350;2023-02-04T12:30:53;94712.41;;;5.12;100.00
40708;BME280;26392;42.696;23.350;2023-02-04T12:33:18;94711.59;;;5.12;100.00
40708;BME280;26392;42.696;23.350;2023-02-04T12:35:44;94714.41;;;5.17;100.00
40708;BME280;26392;42.696;23.350;2023-02-04T12:38:09;94706.66;;;5.21;100.00
40708;BME280;26392;42.696;23.350;2023-02-04T12:40:35;94707.34;;;5.39;100.00
40708;BME280;26392;42.696;23.350;2023-02-04T12:43:01;94714.47;;;5.46;100.00
40708;BME280;26392;42.696;23.350;2023-02-04T12:45:26;94703.59;;;5.41;100.00
40708;BME280;26392;42.696;23.350;2023-02-04T12:47:51;94703.84;;;5.27;100.00
40708;BME280;26392;42.696;23.350;2023-02-04T12:50:18;94701.00;;;5.34;100.00
40708;BME280;26392;42.696;23.350;2023-02-04T12:52:59;94709.34;;;5.44;100.00
40708;BME280;26392;42.696;23.350;2023-02-04T12:55:27;94701.91;;;5.51;100.00
40708;BME280;26392;42.696;23.350;2023-02-04T12:57:53;94703.44;;;5.47;100.00
40708;BME280;26392;42.696;23.350;2023-02-04T13:00:21;94701.78;;;5.58;100.00
40708;BME280;26392;42.696;23.350;2023-02-04T13:02:46;94698.53;;;5.44;100.00